createdAt,value
2019-02-03T00:00:57.270Z,31.00
2019-02-03T00:02:00.299Z,26.00
2019-02-03T00:03:03.392Z,29.50
2019-02-03T00:04:07.146Z,30.00
2019-02-03T00:05:10.028Z,26.50
2019-02-03T00:06:12.888Z,32.00
2019-02-03T00:07:16.010Z,29.50
2019-02-03T00:08:19.050Z,30.00
2019-02-03T00:09:25.329Z,32.00
2019-02-03T00:10:28.138Z,28.50
2019-02-03T00:11:34.885Z,30.00
2019-02-03T00:12:45.178Z,31.00
2019-02-03T00:13:53.037Z,31.50
2019-02-03T00:14:58.568Z,31.00
2019-02-03T00:16:04.491Z,28.00
2019-02-03T00:17:09.841Z,29.00
2019-02-03T00:18:12.743Z,31.50
2019-02-03T00:19:15.915Z,26.50
2019-02-03T00:20:18.760Z,30.50
2019-02-03T00:21:21.937Z,28.50
2019-02-03T00:22:24.749Z,27.50
2019-02-03T00:23:28.480Z,31.50
2019-02-03T00:24:34.142Z,29.00
2019-02-03T00:25:36.768Z,34.00
2019-02-03T00:26:40.687Z,28.50
2019-02-03T00:27:43.758Z,29.00
2019-02-03T00:28:46.738Z,30.00
2019-02-03T00:29:49.717Z,30.50
2019-02-03T00:30:55.107Z,31.50
2019-02-03T00:31:58.251Z,30.00
2019-02-03T00:33:05.068Z,30.00
2019-02-03T00:34:09.590Z,32.00
2019-02-03T00:35:14.242Z,27.50
2019-02-03T00:36:17.072Z,28.00
2019-02-03T00:37:22.729Z,27.50
2019-02-03T00:38:32.356Z,26.00
2019-02-03T00:39:36.766Z,27.50
2019-02-03T00:40:39.734Z,33.00
2019-02-03T00:41:45.002Z,29.00
2019-02-03T00:42:47.571Z,30.50
2019-02-03T00:43:51.600Z,29.00
2019-02-03T00:44:54.744Z,28.50
2019-02-03T00:45:59.997Z,33.50
2019-02-03T00:47:03.325Z,29.50
2019-02-03T00:48:06.559Z,28.00
2019-02-03T00:49:09.455Z,28.50
2019-02-03T00:50:12.305Z,27.00
2019-02-03T00:51:15.483Z,31.50
2019-02-03T00:52:18.316Z,29.50
2019-02-03T00:53:21.551Z,32.00
2019-02-03T00:54:24.384Z,32.50
2019-02-03T00:55:27.224Z,33.50
2019-02-03T00:56:30.453Z,35.50
2019-02-03T00:57:33.576Z,35.50
2019-02-03T00:58:36.428Z,33.50
2019-02-03T00:59:42.076Z,31.50
2019-02-03T01:00:57.426Z,35.00
2019-02-03T01:02:02.514Z,31.50
2019-02-03T01:03:05.332Z,31.00
2019-02-03T01:04:11.157Z,34.00
2019-02-03T01:05:13.998Z,35.00
2019-02-03T01:06:16.897Z,34.00
2019-02-03T01:07:27.219Z,33.50
2019-02-03T01:08:26.008Z,33.50
2019-02-03T01:09:29.296Z,35.00
2019-02-03T01:10:32.521Z,37.50
2019-02-03T01:11:35.379Z,31.50
2019-02-03T01:12:38.280Z,33.00
2019-02-03T01:13:41.179Z,33.50
2019-02-03T01:14:44.701Z,32.00
2019-02-03T01:15:47.648Z,34.00
2019-02-03T01:16:50.491Z,33.00
2019-02-03T01:17:53.397Z,34.50
2019-02-03T01:18:56.263Z,37.50
2019-02-03T01:19:59.070Z,34.00
2019-02-03T01:21:01.987Z,34.00
2019-02-03T01:22:04.871Z,36.00
2019-02-03T01:23:07.989Z,36.00
2019-02-03T01:24:10.899Z,32.00
2019-02-03T01:25:13.721Z,37.50
2019-02-03T01:26:16.552Z,34.00
2019-02-03T01:27:19.673Z,29.00
2019-02-03T01:28:22.481Z,35.50
2019-02-03T01:29:26.112Z,31.00
2019-02-03T01:30:28.993Z,28.50
2019-02-03T01:31:31.849Z,27.50
2019-02-03T01:32:34.669Z,25.50
2019-02-03T01:33:37.521Z,30.00
2019-02-03T01:34:40.330Z,28.00
2019-02-03T01:35:43.566Z,30.50
2019-02-03T01:36:46.370Z,27.50
2019-02-03T01:37:49.191Z,33.00
2019-02-03T01:38:52.037Z,29.00
2019-02-03T01:39:55.567Z,30.00
2019-02-03T01:40:58.878Z,30.00
2019-02-03T01:42:02.201Z,29.00
2019-02-03T01:43:05.430Z,23.50
2019-02-03T01:44:08.692Z,28.50
2019-02-03T01:45:11.578Z,32.00
2019-02-03T01:46:14.382Z,28.50
2019-02-03T01:47:17.234Z,26.50
2019-02-03T01:48:20.461Z,28.50
2019-02-03T01:49:23.279Z,29.50
2019-02-03T01:50:26.198Z,23.50
2019-02-03T01:51:29.021Z,25.50
2019-02-03T01:52:33.489Z,26.50
2019-02-03T01:53:36.535Z,24.50
2019-02-03T01:54:40.577Z,24.00
2019-02-03T01:55:45.110Z,28.50
2019-02-03T01:56:48.382Z,24.50
2019-02-03T01:57:53.221Z,24.00
2019-02-03T01:58:56.116Z,23.50
2019-02-03T01:59:59.487Z,26.00
2019-02-03T02:01:02.702Z,23.50
2019-02-03T02:02:05.585Z,23.00
2019-02-03T02:03:08.406Z,22.00
2019-02-03T02:04:11.240Z,24.00
2019-02-03T02:05:14.060Z,22.50
2019-02-03T02:06:18.843Z,22.50
2019-02-03T02:07:23.918Z,21.50
2019-02-03T02:08:26.730Z,24.00
2019-02-03T02:09:31.080Z,20.50
2019-02-03T02:10:33.905Z,19.50
2019-02-03T02:11:36.748Z,23.00
2019-02-03T02:12:40.057Z,21.50
2019-02-03T02:13:43.178Z,22.50
2019-02-03T02:14:46.370Z,22.00
2019-02-03T02:15:49.209Z,20.00
2019-02-03T02:16:52.583Z,18.00
2019-02-03T02:17:55.491Z,19.50
2019-02-03T02:18:58.310Z,25.00
2019-02-03T02:20:01.516Z,19.50
2019-02-03T02:21:04.356Z,20.50
2019-02-03T02:22:07.463Z,19.00
2019-02-03T02:23:10.395Z,18.00
2019-02-03T02:24:13.187Z,21.50
2019-02-03T02:25:16.024Z,22.50
2019-02-03T02:26:19.147Z,20.00
2019-02-03T02:27:22.021Z,18.00
2019-02-03T02:28:24.856Z,18.50
2019-02-03T02:29:27.690Z,20.00
2019-02-03T02:30:30.548Z,18.00
2019-02-03T02:31:33.504Z,20.50
2019-02-03T02:32:36.650Z,21.50
2019-02-03T02:33:39.464Z,20.50
2019-02-03T02:34:44.811Z,18.00
2019-02-03T02:35:48.604Z,21.00
2019-02-03T02:36:53.442Z,19.50
2019-02-03T02:38:06.014Z,16.00
2019-02-03T02:39:00.810Z,19.50
2019-02-03T02:40:12.254Z,14.00
2019-02-03T02:41:08.529Z,18.50
2019-02-03T02:42:11.416Z,18.50
2019-02-03T02:43:14.234Z,18.00
2019-02-03T02:44:19.072Z,22.50
2019-02-03T02:45:24.573Z,22.00
2019-02-03T02:46:28.688Z,18.00
2019-02-03T02:47:32.682Z,17.50
2019-02-03T02:48:36.023Z,19.00
2019-02-03T02:49:38.913Z,20.00
2019-02-03T02:50:47.071Z,15.50
2019-02-03T02:51:50.056Z,20.00
2019-02-03T02:52:52.891Z,19.00
2019-02-03T02:53:58.902Z,16.00
2019-02-03T02:55:00.806Z,17.00
2019-02-03T02:56:05.900Z,16.00
2019-02-03T02:57:09.045Z,17.00
2019-02-03T02:58:11.890Z,19.00
2019-02-03T02:59:14.685Z,19.00
2019-02-03T03:00:19.840Z,16.00
2019-02-03T03:01:22.766Z,17.50
2019-02-03T03:02:28.361Z,15.50
2019-02-03T03:03:31.460Z,16.00
2019-02-03T03:04:34.281Z,14.50
2019-02-03T03:05:37.117Z,17.00
2019-02-03T03:06:40.248Z,18.00
2019-02-03T03:07:43.103Z,16.00
2019-02-03T03:08:45.911Z,11.50
2019-02-03T03:09:51.207Z,17.50
2019-02-03T03:10:54.042Z,18.00
2019-02-03T03:11:56.989Z,14.00
2019-02-03T03:13:02.495Z,18.50
2019-02-03T03:14:05.338Z,17.00
2019-02-03T03:15:08.188Z,18.00
2019-02-03T03:16:11.371Z,17.00
2019-02-03T03:17:14.287Z,14.50
2019-02-03T03:18:17.589Z,14.00
2019-02-03T03:19:20.417Z,17.00
2019-02-03T03:20:23.279Z,16.00
2019-02-03T03:21:26.497Z,16.50
2019-02-03T03:22:30.843Z,14.00
2019-02-03T03:23:33.695Z,16.00
2019-02-03T03:24:36.906Z,15.50
2019-02-03T03:25:39.754Z,15.00
2019-02-03T03:26:42.730Z,14.00
2019-02-03T03:27:45.644Z,17.00
2019-02-03T03:28:48.753Z,17.00
2019-02-03T03:29:52.046Z,18.50
2019-02-03T03:30:54.941Z,17.50
2019-02-03T03:31:57.766Z,16.00
2019-02-03T03:33:00.591Z,15.50
2019-02-03T03:34:05.864Z,15.50
2019-02-03T03:35:09.934Z,15.00
2019-02-03T03:36:13.278Z,16.50
2019-02-03T03:37:16.071Z,15.00
2019-02-03T03:38:31.188Z,16.50
2019-02-03T03:39:23.408Z,17.00
2019-02-03T03:40:26.238Z,16.50
2019-02-03T03:41:29.364Z,16.50
2019-02-03T03:42:32.201Z,18.00
2019-02-03T03:43:35.023Z,20.00
2019-02-03T03:44:38.412Z,14.50
2019-02-03T03:45:41.218Z,14.50
2019-02-03T03:46:44.045Z,14.00
2019-02-03T03:47:47.135Z,17.50
2019-02-03T03:48:50.349Z,17.50
2019-02-03T03:49:53.275Z,16.00
2019-02-03T03:50:56.207Z,16.00
2019-02-03T03:51:59.002Z,15.00
2019-02-03T03:53:01.819Z,16.00
2019-02-03T03:54:04.994Z,16.00
2019-02-03T03:55:10.271Z,18.00
2019-02-03T03:56:13.152Z,12.00
2019-02-03T03:57:17.600Z,13.50
2019-02-03T03:58:20.533Z,17.00
2019-02-03T03:59:23.480Z,14.50
2019-02-03T04:00:26.722Z,16.00
2019-02-03T04:01:29.657Z,16.50
2019-02-03T04:02:32.791Z,14.00
2019-02-03T04:03:35.587Z,17.00
2019-02-03T04:04:38.422Z,18.00
2019-02-03T04:05:41.303Z,14.00
2019-02-03T04:06:47.602Z,13.00
2019-02-03T04:07:50.418Z,13.50
2019-02-03T04:08:53.256Z,17.00
2019-02-03T04:09:56.082Z,14.00
2019-02-03T04:10:59.009Z,15.00
2019-02-03T04:12:04.592Z,16.00
2019-02-03T04:13:07.780Z,14.00
2019-02-03T04:14:10.593Z,17.50
2019-02-03T04:15:13.777Z,17.00
2019-02-03T04:16:16.969Z,13.50
2019-02-03T04:17:19.853Z,14.00
2019-02-03T04:18:22.694Z,16.00
2019-02-03T04:19:25.815Z,19.50
2019-02-03T04:20:28.725Z,18.00
2019-02-03T04:21:31.947Z,16.50
2019-02-03T04:22:34.758Z,16.50
2019-02-03T04:23:37.575Z,15.50
2019-02-03T04:24:40.416Z,17.00
2019-02-03T04:25:43.594Z,16.00
2019-02-03T04:26:46.414Z,15.00
2019-02-03T04:27:49.300Z,16.00
2019-02-03T04:28:52.325Z,17.50
2019-02-03T04:29:55.503Z,13.00
2019-02-03T04:30:58.333Z,16.50
2019-02-03T04:32:01.470Z,18.00
2019-02-03T04:33:04.566Z,18.00
2019-02-03T04:34:07.325Z,19.00
2019-02-03T04:35:11.948Z,20.00
2019-02-03T04:36:16.960Z,16.50
2019-02-03T04:37:19.884Z,20.00
2019-02-03T04:38:23.016Z,14.50
2019-02-03T04:39:26.272Z,17.00
2019-02-03T04:40:29.545Z,16.00
2019-02-03T04:41:32.942Z,17.00
2019-02-03T04:42:35.988Z,18.00
2019-02-03T04:43:39.172Z,17.50
2019-02-03T04:44:42.836Z,17.00
2019-02-03T04:45:45.756Z,16.50
2019-02-03T04:46:48.569Z,19.00
2019-02-03T04:47:51.462Z,16.00
2019-02-03T04:48:54.284Z,16.50
2019-02-03T04:49:57.185Z,18.00
2019-02-03T04:51:00.309Z,16.00
2019-02-03T04:52:03.146Z,16.00
2019-02-03T04:53:07.594Z,17.50
2019-02-03T04:54:10.425Z,17.00
2019-02-03T04:55:13.251Z,16.50
2019-02-03T04:56:16.145Z,21.50
2019-02-03T04:57:19.651Z,18.50
2019-02-03T04:58:22.732Z,22.00
2019-02-03T04:59:26.669Z,18.00
2019-02-03T05:00:29.493Z,21.50
2019-02-03T05:01:32.350Z,20.00
2019-02-03T05:02:35.596Z,20.50
2019-02-03T05:03:38.801Z,22.00
2019-02-03T05:04:44.065Z,23.00
2019-02-03T05:05:48.286Z,19.50
2019-02-03T05:06:53.622Z,22.00
2019-02-03T05:07:56.463Z,17.50
2019-02-03T05:09:11.205Z,22.00
2019-02-03T05:10:08.332Z,20.00
2019-02-03T05:11:12.290Z,20.00
2019-02-03T05:12:15.118Z,15.00
2019-02-03T05:13:18.457Z,21.00
2019-02-03T05:14:21.414Z,21.50
2019-02-03T05:15:24.631Z,21.00
2019-02-03T05:16:27.480Z,23.00
2019-02-03T05:17:30.310Z,22.00
2019-02-03T05:18:33.142Z,18.50
2019-02-03T05:19:38.379Z,20.50
2019-02-03T05:20:41.390Z,23.50
2019-02-03T05:21:44.578Z,25.50
2019-02-03T05:22:48.775Z,23.50
2019-02-03T05:23:51.644Z,23.50
2019-02-03T05:24:54.927Z,22.00
2019-02-03T05:25:57.807Z,19.50
2019-02-03T05:27:01.117Z,23.00
2019-02-03T05:28:03.962Z,20.50
2019-02-03T05:29:06.817Z,20.50
2019-02-03T05:30:09.642Z,20.00
2019-02-03T05:31:12.529Z,19.00
2019-02-03T05:32:16.186Z,24.50
2019-02-03T05:33:19.302Z,23.00
2019-02-03T05:34:22.116Z,22.00
2019-02-03T05:35:26.412Z,19.50
2019-02-03T05:36:29.570Z,23.00
2019-02-03T05:37:32.447Z,25.00
2019-02-03T05:38:35.865Z,22.50
2019-02-03T05:39:43.655Z,22.00
2019-02-03T05:40:46.830Z,25.00
2019-02-03T05:41:49.717Z,22.50
2019-02-03T05:42:53.001Z,22.00
2019-02-03T05:43:56.031Z,21.50
2019-02-03T05:44:58.885Z,22.50
2019-02-03T05:46:01.995Z,22.00
2019-02-03T05:47:04.828Z,20.00
2019-02-03T05:48:07.735Z,20.50
2019-02-03T05:49:10.547Z,22.50
2019-02-03T05:50:14.961Z,23.50
2019-02-03T05:51:17.798Z,22.00
2019-02-03T05:52:20.923Z,20.50
2019-02-03T05:53:23.770Z,24.50
2019-02-03T05:54:26.940Z,20.00
2019-02-03T05:55:29.863Z,22.50
2019-02-03T05:56:32.653Z,20.00
2019-02-03T05:57:35.501Z,21.00
2019-02-03T05:58:38.699Z,18.00
2019-02-03T05:59:41.590Z,21.00
2019-02-03T06:00:44.419Z,22.00
2019-02-03T06:01:47.228Z,22.00
2019-02-03T06:02:50.035Z,20.00
2019-02-03T06:03:52.869Z,22.00
2019-02-03T06:04:56.082Z,24.00
2019-02-03T06:06:00.668Z,24.50
2019-02-03T06:07:06.221Z,20.00
2019-02-03T06:08:09.443Z,22.00
2019-02-03T06:09:12.347Z,24.00
2019-02-03T06:10:15.204Z,23.50
2019-02-03T06:11:18.327Z,20.50
2019-02-03T06:12:21.177Z,19.50
2019-02-03T06:13:24.114Z,20.50
2019-02-03T06:14:27.132Z,24.00
2019-02-03T06:15:29.932Z,22.00
2019-02-03T06:16:32.737Z,22.50
2019-02-03T06:17:35.953Z,21.00
2019-02-03T06:18:38.768Z,24.00
2019-02-03T06:19:44.198Z,23.50
2019-02-03T06:20:48.416Z,19.00
2019-02-03T06:21:51.497Z,19.50
2019-02-03T06:22:54.296Z,22.00
2019-02-03T06:23:57.427Z,18.50
2019-02-03T06:25:00.376Z,21.50
2019-02-03T06:26:03.288Z,23.00
2019-02-03T06:27:06.231Z,27.00
2019-02-03T06:28:09.059Z,21.50
2019-02-03T06:29:13.867Z,22.50
2019-02-03T06:43:43.070Z,23.50
2019-02-03T06:44:45.936Z,27.00
2019-02-03T06:46:02.200Z,24.50
2019-02-03T06:47:18.397Z,21.50
2019-02-03T06:48:21.978Z,17.75
2019-02-03T06:49:41.802Z,22.75
2019-02-03T06:50:44.651Z,22.00
2019-02-03T06:51:51.373Z,24.00
2019-02-03T06:52:56.968Z,20.50
2019-02-03T06:53:59.929Z,20.00
2019-02-03T06:55:04.281Z,19.50
2019-02-03T06:56:08.610Z,22.00
2019-02-03T06:57:11.583Z,23.00
2019-02-03T06:58:14.389Z,23.00
2019-02-03T06:59:17.280Z,17.50
2019-02-03T07:00:20.142Z,21.50
2019-02-03T07:01:23.270Z,20.50
2019-02-03T07:02:26.102Z,22.00
2019-02-03T07:03:28.937Z,23.00
2019-02-03T07:04:31.737Z,23.50
2019-02-03T07:05:37.394Z,23.00
2019-02-03T07:06:40.246Z,20.00
2019-02-03T07:07:43.385Z,19.00
2019-02-03T07:08:46.215Z,18.00
2019-02-03T07:09:59.795Z,23.00
2019-02-03T07:10:53.835Z,22.00
2019-02-03T07:11:56.677Z,21.50
2019-02-03T07:12:59.990Z,22.50
2019-02-03T07:14:03.135Z,22.00
2019-02-03T07:15:05.986Z,22.50
2019-02-03T07:16:08.942Z,17.00
2019-02-03T07:17:11.851Z,16.50
2019-02-03T07:18:14.702Z,24.00
2019-02-03T07:19:18.876Z,17.50
2019-02-03T07:20:22.036Z,20.50
2019-02-03T07:21:24.834Z,20.50
2019-02-03T07:22:27.711Z,24.50
2019-02-03T07:23:30.855Z,20.00
2019-02-03T07:24:33.661Z,20.50
2019-02-03T07:25:39.201Z,18.00
2019-02-03T07:26:42.465Z,18.50
2019-02-03T07:27:45.339Z,22.00
2019-02-03T07:28:50.390Z,22.00
2019-02-03T07:29:53.271Z,20.50
2019-02-03T07:30:56.090Z,18.00
2019-02-03T07:31:58.936Z,16.50
2019-02-03T07:33:02.601Z,19.00
2019-02-03T07:34:05.461Z,20.00
2019-02-03T07:35:08.388Z,23.50
2019-02-03T07:36:11.598Z,21.00
2019-02-03T07:37:14.401Z,22.00
2019-02-03T07:38:18.741Z,23.50
2019-02-03T07:39:21.936Z,20.50
2019-02-03T07:40:25.698Z,18.00
2019-02-03T07:41:31.410Z,20.50
2019-02-03T07:42:34.711Z,21.50
2019-02-03T07:43:37.616Z,22.00
2019-02-03T07:44:41.079Z,24.00
2019-02-03T07:45:45.856Z,24.50
2019-02-03T07:46:48.374Z,17.50
2019-02-03T07:47:51.204Z,23.00
2019-02-03T07:48:54.513Z,21.50
2019-02-03T07:49:57.345Z,23.50
2019-02-03T07:51:00.498Z,24.00
2019-02-03T07:52:03.697Z,18.00
2019-02-03T07:53:08.628Z,20.50
2019-02-03T07:54:11.063Z,21.00
2019-02-03T07:55:13.980Z,21.00
2019-02-03T07:56:16.776Z,24.00
2019-02-03T07:57:22.008Z,21.50
2019-02-03T07:58:25.073Z,21.50
2019-02-03T07:59:27.962Z,19.50
2019-02-03T08:00:30.851Z,22.50
2019-02-03T08:01:33.668Z,23.50
2019-02-03T08:02:36.801Z,27.00
2019-02-03T08:03:39.631Z,18.00
2019-02-03T08:04:43.199Z,22.50
2019-02-03T08:05:46.798Z,18.00
2019-02-03T08:06:49.728Z,21.00
2019-02-03T08:07:52.656Z,19.50
2019-02-03T08:08:55.770Z,23.50
2019-02-03T08:10:01.001Z,24.00
2019-02-03T08:11:04.775Z,21.00
2019-02-03T08:12:07.965Z,21.00
2019-02-03T08:13:10.839Z,23.50
2019-02-03T08:14:13.725Z,24.00
2019-02-03T08:15:16.976Z,23.50
2019-02-03T08:16:19.838Z,21.50
2019-02-03T08:17:23.018Z,26.00
2019-02-03T08:18:25.905Z,24.50
2019-02-03T08:19:29.121Z,22.50
2019-02-03T08:20:33.036Z,21.50
2019-02-03T08:21:36.202Z,23.50
2019-02-03T08:22:39.060Z,24.50
2019-02-03T08:23:42.646Z,24.00
2019-02-03T08:24:47.711Z,21.50
2019-02-03T08:25:50.630Z,24.00
2019-02-03T08:26:53.530Z,23.50
2019-02-03T08:27:57.067Z,19.50
2019-02-03T08:28:59.948Z,21.50
2019-02-03T08:30:02.791Z,26.00
2019-02-03T08:31:05.629Z,22.50
2019-02-03T08:32:08.440Z,21.50
2019-02-03T08:33:11.550Z,25.50
2019-02-03T08:34:14.755Z,22.00
2019-02-03T08:35:19.909Z,23.50
2019-02-03T08:36:25.944Z,23.50
2019-02-03T08:37:28.812Z,22.00
2019-02-03T08:38:31.656Z,21.00
2019-02-03T08:39:34.556Z,22.00
2019-02-03T08:40:37.846Z,21.00
2019-02-03T08:41:40.648Z,20.00
2019-02-03T08:42:43.485Z,26.00
2019-02-03T08:43:46.330Z,23.50
2019-02-03T08:44:49.278Z,25.25
2019-02-03T08:45:52.093Z,23.75
2019-02-03T08:46:55.507Z,21.75
2019-02-03T08:48:00.053Z,21.50
2019-02-03T08:49:04.669Z,21.50
2019-02-03T08:50:10.416Z,23.00
2019-02-03T08:51:13.248Z,22.00
2019-02-03T08:52:17.648Z,18.50
2019-02-03T08:53:20.886Z,23.00
2019-02-03T08:54:23.686Z,20.00
2019-02-03T08:55:28.753Z,20.50
2019-02-03T08:56:31.580Z,22.00
2019-02-03T08:57:34.469Z,20.00
2019-02-03T08:58:37.666Z,22.50
2019-02-03T08:59:40.813Z,20.50
2019-02-03T09:00:45.837Z,15.50
2019-02-03T09:01:48.957Z,23.00
2019-02-03T09:02:51.862Z,19.00
2019-02-03T09:03:54.770Z,22.00
2019-02-03T09:04:57.573Z,22.00
2019-02-03T09:06:00.441Z,27.50
2019-02-03T09:07:03.374Z,23.00
2019-02-03T09:08:06.252Z,24.50
2019-02-03T09:09:09.142Z,21.50
2019-02-03T09:10:12.055Z,24.50
2019-02-03T09:11:14.880Z,20.50
2019-02-03T09:12:19.559Z,25.00
2019-02-03T09:13:25.424Z,26.00
2019-02-03T09:14:28.231Z,25.00
2019-02-03T09:15:34.512Z,25.00
2019-02-03T09:16:37.841Z,22.00
2019-02-03T09:17:41.375Z,28.00
2019-02-03T09:18:44.506Z,26.00
2019-02-03T09:19:47.292Z,27.50
2019-02-03T09:20:50.223Z,26.00
2019-02-03T09:21:53.152Z,27.00
2019-02-03T09:22:55.976Z,25.50
2019-02-03T09:23:58.813Z,26.50
2019-02-03T09:25:01.980Z,22.00
2019-02-03T09:26:04.864Z,21.00
2019-02-03T09:27:08.249Z,23.00
2019-02-03T09:28:11.111Z,24.50
2019-02-03T09:29:14.143Z,19.50
2019-02-03T09:30:17.027Z,24.50
2019-02-03T09:31:20.267Z,20.50
2019-02-03T09:32:23.414Z,19.50
2019-02-03T09:33:26.286Z,20.00
2019-02-03T09:34:35.717Z,18.00
2019-02-03T09:35:39.685Z,23.50
2019-02-03T09:36:43.571Z,20.00
2019-02-03T09:37:49.546Z,19.50
2019-02-03T09:38:52.430Z,21.00
2019-02-03T09:39:55.342Z,17.50
2019-02-03T09:41:00.263Z,20.00
2019-02-03T09:42:04.044Z,21.50
2019-02-03T09:43:08.665Z,22.00
2019-02-03T09:44:16.459Z,23.50
2019-02-03T09:45:19.320Z,20.00
2019-02-03T09:46:22.461Z,20.00
2019-02-03T09:47:25.596Z,23.50
2019-02-03T09:48:28.530Z,21.00
2019-02-03T09:49:31.419Z,22.00
2019-02-03T09:50:37.240Z,19.00
2019-02-03T09:51:42.778Z,23.00
2019-02-03T09:52:45.804Z,20.00
2019-02-03T09:53:51.308Z,22.50
2019-02-03T09:54:54.577Z,18.00
2019-02-03T09:55:57.412Z,19.00
2019-02-03T09:57:07.306Z,17.50
2019-02-03T09:58:10.627Z,16.00
2019-02-03T09:59:13.479Z,16.00
2019-02-03T10:00:16.423Z,19.00
2019-02-03T10:01:25.439Z,16.50
2019-02-03T10:02:28.563Z,14.50
2019-02-03T10:03:31.805Z,18.00
2019-02-03T10:04:36.922Z,15.50
2019-02-03T10:05:39.847Z,15.50
2019-02-03T10:06:45.457Z,17.00
2019-02-03T10:07:48.340Z,20.00
2019-02-03T10:08:54.388Z,17.50
2019-02-03T10:09:57.286Z,17.50
2019-02-03T10:11:11.302Z,14.00
2019-02-03T10:12:04.785Z,16.00
2019-02-03T10:13:07.633Z,16.00
2019-02-03T10:14:11.687Z,16.00
2019-02-03T10:15:17.581Z,14.50
2019-02-03T10:16:20.493Z,16.00
2019-02-03T10:17:23.418Z,14.00
2019-02-03T10:18:26.360Z,14.50
2019-02-03T10:19:29.531Z,14.00
2019-02-03T10:20:32.567Z,14.50
2019-02-03T10:21:35.920Z,16.50
2019-02-03T10:22:38.797Z,18.00
2019-02-03T10:23:41.623Z,14.00
2019-02-03T10:24:44.561Z,12.50
2019-02-03T10:25:47.400Z,16.00
2019-02-03T10:26:50.264Z,15.00
2019-02-03T10:27:55.898Z,13.00
2019-02-03T10:28:58.742Z,14.50
2019-02-03T10:30:05.100Z,14.00
2019-02-03T10:31:09.136Z,15.50
2019-02-03T10:32:12.310Z,14.00
2019-02-03T10:33:18.681Z,12.00
2019-02-03T10:34:29.933Z,13.50
2019-02-03T10:35:35.627Z,14.00
2019-02-03T10:36:40.712Z,16.00
2019-02-03T10:37:44.663Z,14.00
2019-02-03T10:38:53.241Z,15.00
2019-02-03T10:39:58.612Z,17.50
2019-02-03T10:41:03.108Z,14.00
2019-02-03T10:42:07.942Z,18.00
2019-02-03T10:43:16.409Z,14.00
2019-02-03T10:44:19.397Z,15.50
2019-02-03T10:45:23.915Z,15.50
2019-02-03T10:46:27.072Z,14.50
2019-02-03T10:47:31.368Z,15.00
2019-02-03T10:48:38.364Z,11.50
2019-02-03T10:49:46.643Z,14.00
2019-02-03T10:50:50.061Z,12.00
2019-02-03T10:51:53.126Z,11.00
2019-02-03T10:53:02.500Z,11.50
2019-02-03T10:54:07.668Z,9.00
2019-02-03T10:55:10.664Z,13.00
2019-02-03T10:56:17.114Z,12.50
2019-02-03T10:57:23.852Z,12.00
2019-02-03T10:58:26.413Z,11.50
2019-02-03T10:59:32.520Z,11.50
2019-02-03T11:00:35.628Z,15.50
2019-02-03T11:01:39.488Z,10.50
2019-02-03T11:02:45.904Z,13.00
2019-02-03T11:03:49.626Z,11.00
2019-02-03T11:04:52.578Z,12.00
2019-02-03T11:05:59.097Z,12.00
2019-02-03T11:07:00.448Z,14.00
2019-02-03T11:08:05.501Z,10.50
2019-02-03T11:09:09.073Z,9.00
2019-02-03T11:10:11.970Z,13.50
2019-02-03T11:11:14.865Z,10.50
2019-02-03T11:12:18.290Z,12.00
2019-02-03T11:13:31.747Z,14.50
2019-02-03T11:14:48.201Z,10.50
2019-02-03T11:15:55.855Z,11.50
2019-02-03T11:18:24.480Z,10.50
2019-02-03T11:19:27.795Z,12.00
2019-02-03T11:20:32.822Z,10.50
2019-02-03T11:21:38.078Z,10.00
2019-02-03T11:22:48.613Z,11.50
2019-02-03T11:23:54.646Z,9.00
2019-02-03T11:25:02.198Z,8.50
2019-02-03T11:26:09.905Z,11.50
2019-02-03T11:27:18.027Z,10.00
2019-02-03T11:28:22.554Z,9.50
2019-02-03T11:29:27.240Z,12.00
2019-02-03T11:33:26.140Z,8.00
2019-02-03T11:34:29.038Z,7.00
2019-02-03T11:35:32.309Z,11.50
2019-02-03T11:36:35.643Z,11.75
2019-02-03T11:37:41.100Z,9.75
2019-02-03T11:38:44.384Z,9.75
2019-02-03T11:39:48.686Z,10.25
2019-02-03T11:40:52.250Z,8.75
2019-02-03T11:41:59.367Z,11.75
2019-02-03T11:43:10.028Z,11.25
2019-02-03T11:44:23.589Z,10.00
2019-02-03T11:45:27.823Z,10.00
2019-02-03T11:46:35.706Z,9.50
2019-02-03T11:47:42.893Z,9.00
2019-02-03T11:48:51.937Z,8.00
2019-02-03T11:49:54.531Z,11.50
2019-02-03T11:50:57.386Z,10.25
2019-02-03T11:52:02.517Z,9.50
2019-02-03T11:53:07.343Z,11.50
2019-02-03T11:54:12.886Z,8.50
2019-02-03T11:55:16.005Z,11.75
2019-02-03T11:56:18.854Z,8.75
2019-02-03T11:57:28.378Z,9.75
2019-02-03T11:58:31.703Z,10.50
2019-02-03T11:59:36.517Z,11.25
2019-02-03T12:00:40.971Z,9.50
2019-02-03T12:01:46.739Z,9.50
2019-02-03T12:02:53.915Z,9.75
2019-02-03T12:04:06.400Z,8.50
2019-02-03T12:05:13.568Z,10.00
2019-02-03T12:06:16.607Z,10.50
2019-02-03T12:07:27.605Z,9.50
2019-02-03T12:08:31.193Z,10.50
2019-02-03T12:09:34.423Z,12.00
2019-02-03T12:10:40.061Z,10.00
2019-02-03T12:11:43.503Z,10.00
2019-02-03T12:12:48.412Z,13.00
2019-02-03T12:13:51.545Z,10.50
2019-02-03T12:14:59.070Z,9.75
2019-02-03T12:16:05.274Z,8.00
2019-02-03T12:17:12.256Z,8.00
2019-02-03T12:18:15.200Z,14.00
2019-02-03T12:19:18.927Z,9.50
2019-02-03T12:20:24.033Z,8.00
2019-02-03T12:21:30.170Z,11.00
2019-02-03T12:22:38.580Z,9.50
2019-02-03T12:23:41.572Z,7.50
2019-02-03T12:24:44.511Z,8.00
2019-02-03T12:25:53.539Z,9.00
2019-02-03T12:26:56.664Z,8.00
2019-02-03T12:28:01.307Z,9.00
2019-02-03T12:29:04.694Z,6.00
2019-02-03T12:30:09.924Z,10.50
2019-02-03T12:31:13.184Z,8.00
2019-02-03T12:32:16.620Z,8.25
2019-02-03T12:33:22.531Z,9.25
2019-02-03T12:34:25.472Z,8.25
2019-02-03T12:35:28.905Z,9.75
2019-02-03T12:36:33.022Z,9.75
2019-02-03T12:37:37.043Z,10.75
2019-02-03T12:38:40.110Z,11.75
2019-02-03T12:39:48.112Z,9.25
2019-02-03T12:40:52.702Z,11.75
2019-02-03T12:41:55.921Z,11.75
2019-02-03T12:42:59.833Z,5.75
2019-02-03T12:44:02.885Z,6.25
2019-02-03T12:45:06.533Z,5.75
2019-02-03T12:46:10.913Z,7.25
2019-02-03T12:47:13.838Z,5.75
2019-02-03T12:48:19.686Z,5.75
2019-02-03T12:49:22.571Z,4.00
2019-02-03T12:50:26.728Z,6.75
2019-02-03T12:51:30.646Z,4.75
2019-02-03T12:52:42.313Z,5.75
2019-02-03T12:53:45.648Z,6.00
2019-02-03T12:54:50.208Z,4.50
2019-02-03T12:55:55.454Z,6.75
2019-02-03T12:56:59.733Z,7.25
2019-02-03T12:58:02.790Z,6.25
2019-02-03T12:59:12.499Z,3.75
2019-02-03T13:00:16.220Z,6.00
2019-02-03T13:01:20.724Z,4.25
2019-02-03T13:02:23.581Z,4.25
2019-02-03T13:03:26.473Z,5.75
2019-02-03T13:04:29.333Z,6.25
2019-02-03T13:05:32.718Z,8.25
2019-02-03T13:06:35.594Z,7.25
2019-02-03T13:07:38.776Z,5.75
2019-02-03T13:08:42.201Z,5.75
2019-02-03T13:09:47.951Z,4.25
2019-02-03T13:10:52.681Z,4.75
2019-02-03T13:11:57.604Z,4.75
2019-02-03T13:13:00.945Z,8.75
2019-02-03T13:14:06.000Z,7.75
2019-02-03T13:15:10.772Z,5.75
2019-02-03T13:16:20.486Z,5.25
2019-02-03T13:17:25.852Z,4.25
2019-02-03T13:18:30.776Z,6.25
2019-02-03T13:19:33.556Z,5.75
2019-02-03T13:20:45.925Z,5.00
2019-02-03T13:21:49.420Z,5.25
2019-02-03T13:23:01.940Z,3.00
2019-02-03T13:24:08.727Z,7.00
2019-02-03T13:25:13.332Z,4.00
2019-02-03T13:26:23.734Z,5.00
2019-02-03T13:27:26.204Z,5.00
2019-02-03T13:28:29.323Z,4.00
2019-02-03T13:29:32.031Z,3.50
2019-02-03T13:30:35.127Z,7.00
2019-02-03T13:31:38.159Z,7.00
2019-02-03T13:32:44.111Z,5.00
2019-02-03T13:33:47.721Z,6.00
2019-02-03T13:34:50.590Z,5.50
2019-02-03T13:35:58.691Z,7.00
2019-02-03T13:37:01.930Z,5.00
2019-02-03T13:38:08.801Z,5.00
2019-02-03T13:39:12.407Z,5.00
2019-02-03T13:40:19.949Z,7.00
2019-02-03T13:41:25.448Z,5.00
2019-02-03T13:42:37.596Z,7.50
2019-02-03T13:43:34.109Z,6.50
2019-02-03T13:44:40.228Z,5.00
2019-02-03T13:45:45.053Z,5.00
2019-02-03T13:46:52.647Z,5.00
2019-02-03T13:47:55.611Z,5.50
2019-02-03T13:48:59.139Z,7.00
2019-02-03T13:50:07.843Z,3.50
2019-02-03T13:51:10.781Z,7.00
2019-02-03T13:52:17.626Z,5.00
2019-02-03T13:53:24.634Z,5.00
2019-02-03T13:54:33.621Z,6.00
2019-02-03T13:55:36.814Z,4.50
2019-02-03T13:56:41.404Z,7.00
2019-02-03T13:57:51.263Z,8.75
2019-02-03T13:58:55.786Z,8.00
2019-02-03T13:59:59.297Z,9.00
2019-02-03T14:01:02.409Z,8.00
2019-02-03T14:02:05.739Z,7.00
2019-02-03T14:03:11.895Z,7.00
2019-02-03T14:04:14.763Z,5.00
2019-02-03T14:05:17.879Z,5.50
2019-02-03T14:06:23.252Z,6.00